sensor_id;sensor_type;location;lat;lon;timestamp;P1;durP1;ratioP1;P2;durP2;ratioP2
36817;SDS011;22761;51.542;16.450;2024-02-26T00:02:22;39.50;;;20.90;;
36817;SDS011;22761;51.542;16.450;2024-02-26T00:04:50;37.40;;;21.00;;
36817;SDS011;22761;51.542;16.450;2024-02-26T00:07:18;35.80;;;19.30;;
36817;SDS011;22761;51.542;16.450;2024-02-26T00:09:46;34.60;;;18.80;;
36817;SDS011;22761;51.542;16.450;2024-02-26T00:12:15;31.20;;;18.40;;
36817;SDS011;22761;51.542;16.450;2024-02-26T00:14:43;30.40;;;18.20;;
36817;SDS011;22761;51.542;16.450;2024-02-26T00:17:13;32.10;;;17.10;;
36817;SDS011;22761;51.542;16.450;2024-02-26T00:19:41;31.30;;;17.90;;
36817;SDS011;22761;51.542;16.450;2024-02-26T00:22:10;36.60;;;18.90;;
36817;SDS011;22761;51.542;16.450;2024-02-26T00:24:39;36.70;;;18.80;;
36817;SDS011;22761;51.542;16.450;2024-02-26T00:27:08;34.80;;;18.70;;
36817;SDS011;22761;51.542;16.450;2024-02-26T00:29:36;30.70;;;17.40;;
36817;SDS011;22761;51.542;16.450;2024-02-26T00:32:05;33.70;;;18.10;;
36817;SDS011;22761;51.542;16.450;2024-02-26T00:34:33;30.40;;;19.00;;
36817;SDS011;22761;51.542;16.450;2024-02-26T00:37:01;35.70;;;18.50;;
36817;SDS011;22761;51.542;16.450;2024-02-26T00:39:30;33.70;;;18.00;;
36817;SDS011;22761;51.542;16.450;2024-02-26T00:41:58;36.30;;;19.40;;
36817;SDS011;22761;51.542;16.450;2024-02-26T00:44:26;32.60;;;19.00;;
36817;SDS011;22761;51.542;16.450;2024-02-26T00:46:54;40.20;;;20.30;;
36817;SDS011;22761;51.542;16.450;2024-02-26T00:49:22;38.60;;;20.00;;
36817;SDS011;22761;51.542;16.450;2024-02-26T00:51:51;36.70;;;20.50;;
36817;SDS011;22761;51.542;16.450;2024-02-26T00:54:19;34.50;;;19.90;;
36817;SDS011;22761;51.542;16.450;2024-02-26T00:56:47;38.20;;;19.50;;
36817;SDS011;22761;51.542;16.450;2024-02-26T00:59:16;38.40;;;19.80;;
36817;SDS011;22761;51.542;16.450;2024-02-26T01:01:44;36.80;;;20.40;;
36817;SDS011;22761;51.542;16.450;2024-02-26T01:04:12;36.40;;;19.00;;
36817;SDS011;22761;51.542;16.450;2024-02-26T01:06:40;37.20;;;19.10;;
36817;SDS011;22761;51.542;16.450;2024-02-26T01:09:09;38.90;;;19.90;;
36817;SDS011;22761;51.542;16.450;2024-02-26T01:11:37;34.60;;;18.30;;
36817;SDS011;22761;51.542;16.450;2024-02-26T01:14:05;36.90;;;20.00;;
36817;SDS011;22761;51.542;16.450;2024-02-26T01:16:34;33.00;;;20.30;;
36817;SDS011;22761;51.542;16.450;2024-02-26T01:19:02;38.90;;;22.00;;
36817;SDS011;22761;51.542;16.450;2024-02-26T01:21:31;40.80;;;23.50;;
36817;SDS011;22761;51.542;16.450;2024-02-26T01:23:59;37.50;;;21.50;;
36817;SDS011;22761;51.542;16.450;2024-02-26T01:26:27;38.00;;;22.40;;
36817;SDS011;22761;51.542;16.450;2024-02-26T01:28:55;31.90;;;20.80;;
36817;SDS011;22761;51.542;16.450;2024-02-26T01:31:23;35.70;;;21.10;;
36817;SDS011;22761;51.542;16.450;2024-02-26T01:33:52;38.60;;;21.10;;
36817;SDS011;22761;51.542;16.450;2024-02-26T01:36:21;39.80;;;22.00;;
36817;SDS011;22761;51.542;16.450;2024-02-26T01:38:49;36.70;;;21.10;;
36817;SDS011;22761;51.542;16.450;2024-02-26T01:41:17;37.50;;;21.80;;
36817;SDS011;22761;51.542;16.450;2024-02-26T01:43:45;38.40;;;21.10;;
36817;SDS011;22761;51.542;16.450;2024-02-26T01:46:14;36.60;;;22.20;;
36817;SDS011;22761;51.542;16.450;2024-02-26T01:48:43;33.40;;;21.10;;
36817;SDS011;22761;51.542;16.450;2024-02-26T01:51:12;32.80;;;19.90;;
36817;SDS011;22761;51.542;16.450;2024-02-26T01:53:42;38.60;;;21.10;;
36817;SDS011;22761;51.542;16.450;2024-02-26T01:56:11;34.80;;;20.40;;
36817;SDS011;22761;51.542;16.450;2024-02-26T01:58:40;30.20;;;19.30;;
36817;SDS011;22761;51.542;16.450;2024-02-26T02:01:09;36.50;;;19.30;;
36817;SDS011;22761;51.542;16.450;2024-02-26T02:03:38;33.20;;;19.40;;
36817;SDS011;22761;51.542;16.450;2024-02-26T02:06:06;33.30;;;19.10;;
36817;SDS011;22761;51.542;16.450;2024-02-26T02:08:35;29.40;;;18.90;;
36817;SDS011;22761;51.542;16.450;2024-02-26T02:11:03;30.80;;;18.80;;
36817;SDS011;22761;51.542;16.450;2024-02-26T02:13:31;34.80;;;18.80;;
36817;SDS011;22761;51.542;16.450;2024-02-26T02:16:00;36.40;;;20.40;;
36817;SDS011;22761;51.542;16.450;2024-02-26T02:18:28;38.40;;;20.80;;
36817;SDS011;22761;51.542;16.450;2024-02-26T02:20:56;29.90;;;18.80;;
36817;SDS011;22761;51.542;16.450;2024-02-26T02:23:27;38.60;;;21.60;;
36817;SDS011;22761;51.542;16.450;2024-02-26T02:25:56;36.00;;;20.10;;
36817;SDS011;22761;51.542;16.450;2024-02-26T02:28:25;32.00;;;19.50;;
36817;SDS011;22761;51.542;16.450;2024-02-26T02:30:54;35.70;;;19.10;;
36817;SDS011;22761;51.542;16.450;2024-02-26T02:33:24;32.00;;;17.70;;
36817;SDS011;22761;51.542;16.450;2024-02-26T02:35:54;27.80;;;16.90;;
36817;SDS011;22761;51.542;16.450;2024-02-26T02:38:23;26.30;;;16.60;;
36817;SDS011;22761;51.542;16.450;2024-02-26T02:40:53;27.20;;;17.00;;
36817;SDS011;22761;51.542;16.450;2024-02-26T02:43:22;27.80;;;16.70;;
36817;SDS011;22761;51.542;16.450;2024-02-26T02:45:50;28.30;;;17.80;;
36817;SDS011;22761;51.542;16.450;2024-02-26T02:48:18;30.90;;;17.40;;
36817;SDS011;22761;51.542;16.450;2024-02-26T02:50:46;26.90;;;17.00;;
36817;SDS011;22761;51.542;16.450;2024-02-26T02:53:15;28.40;;;17.80;;
36817;SDS011;22761;51.542;16.450;2024-02-26T02:55:44;31.50;;;16.80;;
36817;SDS011;22761;51.542;16.450;2024-02-26T02:58:12;25.40;;;16.10;;
36817;SDS011;22761;51.542;16.450;2024-02-26T03:00:40;25.00;;;15.80;;
36817;SDS011;22761;51.542;16.450;2024-02-26T03:03:09;25.60;;;16.20;;
36817;SDS011;22761;51.542;16.450;2024-02-26T03:05:37;28.30;;;17.10;;
36817;SDS011;22761;51.542;16.450;2024-02-26T03:08:05;30.10;;;16.10;;
36817;SDS011;22761;51.542;16.450;2024-02-26T03:10:34;26.50;;;17.20;;
36817;SDS011;22761;51.542;16.450;2024-02-26T03:13:02;27.80;;;16.80;;
36817;SDS011;22761;51.542;16.450;2024-02-26T03:15:31;27.10;;;17.20;;
36817;SDS011;22761;51.542;16.450;2024-02-26T03:17:59;28.80;;;17.20;;
36817;SDS011;22761;51.542;16.450;2024-02-26T03:20:27;28.60;;;17.70;;
36817;SDS011;22761;51.542;16.450;2024-02-26T03:22:55;29.40;;;16.60;;
36817;SDS011;22761;51.542;16.450;2024-02-26T03:25:24;30.20;;;16.60;;
36817;SDS011;22761;51.542;16.450;2024-02-26T03:27:52;30.70;;;17.70;;
36817;SDS011;22761;51.542;16.450;2024-02-26T03:30:20;34.30;;;18.60;;
36817;SDS011;22761;51.542;16.450;2024-02-26T03:32:48;31.60;;;17.20;;
36817;SDS011;22761;51.542;16.450;2024-02-26T03:35:17;29.30;;;17.20;;
36817;SDS011;22761;51.542;16.450;2024-02-26T03:37:46;28.80;;;17.50;;
36817;SDS011;22761;51.542;16.450;2024-02-26T03:40:15;30.10;;;17.10;;
36817;SDS011;22761;51.542;16.450;2024-02-26T03:42:43;35.20;;;18.10;;
36817;SDS011;22761;51.542;16.450;2024-02-26T03:45:12;29.00;;;17.30;;
36817;SDS011;22761;51.542;16.450;2024-02-26T03:47:40;27.30;;;16.60;;
36817;SDS011;22761;51.542;16.450;2024-02-26T03:50:09;27.30;;;17.00;;
36817;SDS011;22761;51.542;16.450;2024-02-26T03:52:37;29.60;;;18.20;;
36817;SDS011;22761;51.542;16.450;2024-02-26T03:55:06;27.80;;;17.20;;
36817;SDS011;22761;51.542;16.450;2024-02-26T03:57:35;29.50;;;17.20;;
36817;SDS011;22761;51.542;16.450;2024-02-26T04:00:04;26.20;;;16.20;;
36817;SDS011;22761;51.542;16.450;2024-02-26T04:02:40;30.80;;;18.90;;
36817;SDS011;22761;51.542;16.450;2024-02-26T04:05:11;31.30;;;18.40;;
36817;SDS011;22761;51.542;16.450;2024-02-26T04:07:40;34.80;;;19.40;;
36817;SDS011;22761;51.542;16.450;2024-02-26T04:10:12;34.80;;;20.50;;
36817;SDS011;22761;51.542;16.450;2024-02-26T04:12:41;29.60;;;17.60;;
36817;SDS011;22761;51.542;16.450;2024-02-26T04:15:10;28.70;;;19.20;;
36817;SDS011;22761;51.542;16.450;2024-02-26T04:17:39;35.50;;;19.50;;
36817;SDS011;22761;51.542;16.450;2024-02-26T04:20:12;33.00;;;19.40;;
36817;SDS011;22761;51.542;16.450;2024-02-26T04:22:42;33.80;;;17.50;;
36817;SDS011;22761;51.542;16.450;2024-02-26T04:25:11;29.00;;;17.70;;
36817;SDS011;22761;51.542;16.450;2024-02-26T04:27:39;27.10;;;16.70;;
36817;SDS011;22761;51.542;16.450;2024-02-26T04:30:08;30.10;;;18.90;;
36817;SDS011;22761;51.542;16.450;2024-02-26T04:32:36;29.20;;;17.90;;
36817;SDS011;22761;51.542;16.450;2024-02-26T04:35:05;31.80;;;19.50;;
36817;SDS011;22761;51.542;16.450;2024-02-26T04:37:34;31.60;;;18.40;;
36817;SDS011;22761;51.542;16.450;2024-02-26T04:40:02;30.90;;;18.10;;
36817;SDS011;22761;51.542;16.450;2024-02-26T04:42:30;29.80;;;18.60;;
36817;SDS011;22761;51.542;16.450;2024-02-26T04:44:59;32.10;;;19.30;;
36817;SDS011;22761;51.542;16.450;2024-02-26T04:47:27;36.80;;;21.50;;
36817;SDS011;22761;51.542;16.450;2024-02-26T04:49:56;29.20;;;18.30;;
36817;SDS011;22761;51.542;16.450;2024-02-26T04:52:25;38.00;;;19.90;;
36817;SDS011;22761;51.542;16.450;2024-02-26T04:54:53;31.20;;;19.10;;
36817;SDS011;22761;51.542;16.450;2024-02-26T04:57:22;33.10;;;20.20;;
36817;SDS011;22761;51.542;16.450;2024-02-26T04:59:51;32.90;;;18.50;;
36817;SDS011;22761;51.542;16.450;2024-02-26T05:02:19;35.10;;;20.70;;
36817;SDS011;22761;51.542;16.450;2024-02-26T05:04:48;36.00;;;20.30;;
36817;SDS011;22761;51.542;16.450;2024-02-26T05:07:16;35.00;;;19.60;;
36817;SDS011;22761;51.542;16.450;2024-02-26T05:09:47;36.00;;;20.50;;
36817;SDS011;22761;51.542;16.450;2024-02-26T05:14:45;32.30;;;19.80;;
36817;SDS011;22761;51.542;16.450;2024-02-26T05:17:14;31.50;;;19.80;;
36817;SDS011;22761;51.542;16.450;2024-02-26T05:19:42;29.90;;;19.30;;
36817;SDS011;22761;51.542;16.450;2024-02-26T05:22:10;32.00;;;19.50;;
36817;SDS011;22761;51.542;16.450;2024-02-26T05:24:38;28.50;;;19.00;;
36817;SDS011;22761;51.542;16.450;2024-02-26T05:27:07;34.60;;;19.20;;
36817;SDS011;22761;51.542;16.450;2024-02-26T05:29:35;34.90;;;19.60;;
36817;SDS011;22761;51.542;16.450;2024-02-26T05:32:03;30.90;;;18.30;;
36817;SDS011;22761;51.542;16.450;2024-02-26T05:34:33;30.20;;;18.70;;
36817;SDS011;22761;51.542;16.450;2024-02-26T05:37:02;31.90;;;20.10;;
36817;SDS011;22761;51.542;16.450;2024-02-26T05:39:30;33.30;;;19.60;;
36817;SDS011;22761;51.542;16.450;2024-02-26T05:41:58;31.90;;;19.80;;
36817;SDS011;22761;51.542;16.450;2024-02-26T05:44:27;30.40;;;18.50;;
36817;SDS011;22761;51.542;16.450;2024-02-26T05:46:55;30.50;;;18.20;;
36817;SDS011;22761;51.542;16.450;2024-02-26T05:49:24;33.90;;;18.80;;
36817;SDS011;22761;51.542;16.450;2024-02-26T05:51:52;27.20;;;17.60;;
36817;SDS011;22761;51.542;16.450;2024-02-26T05:54:21;31.50;;;18.20;;
36817;SDS011;22761;51.542;16.450;2024-02-26T05:56:49;30.50;;;19.40;;
36817;SDS011;22761;51.542;16.450;2024-02-26T05:59:17;30.80;;;18.40;;
36817;SDS011;22761;51.542;16.450;2024-02-26T06:01:45;30.90;;;19.10;;
36817;SDS011;22761;51.542;16.450;2024-02-26T06:04:14;28.20;;;18.60;;
36817;SDS011;22761;51.542;16.450;2024-02-26T06:06:42;29.90;;;18.10;;
36817;SDS011;22761;51.542;16.450;2024-02-26T06:09:11;33.20;;;18.90;;
36817;SDS011;22761;51.542;16.450;2024-02-26T06:11:39;33.60;;;19.70;;
36817;SDS011;22761;51.542;16.450;2024-02-26T06:14:08;28.90;;;19.70;;
36817;SDS011;22761;51.542;16.450;2024-02-26T06:16:36;32.60;;;20.50;;
36817;SDS011;22761;51.542;16.450;2024-02-26T06:19:04;32.40;;;19.50;;
36817;SDS011;22761;51.542;16.450;2024-02-26T06:21:33;31.60;;;19.00;;
36817;SDS011;22761;51.542;16.450;2024-02-26T06:24:01;29.20;;;19.50;;
36817;SDS011;22761;51.542;16.450;2024-02-26T06:26:29;29.00;;;18.90;;
36817;SDS011;22761;51.542;16.450;2024-02-26T06:28:58;35.30;;;19.20;;
36817;SDS011;22761;51.542;16.450;2024-02-26T06:31:26;31.30;;;19.30;;
36817;SDS011;22761;51.542;16.450;2024-02-26T06:33:55;29.20;;;18.00;;
36817;SDS011;22761;51.542;16.450;2024-02-26T06:36:24;27.70;;;17.80;;
36817;SDS011;22761;51.542;16.450;2024-02-26T06:38:53;32.70;;;19.40;;
36817;SDS011;22761;51.542;16.450;2024-02-26T06:41:22;29.70;;;19.40;;
36817;SDS011;22761;51.542;16.450;2024-02-26T06:43:55;37.20;;;19.80;;
36817;SDS011;22761;51.542;16.450;2024-02-26T06:46:24;29.80;;;18.40;;
36817;SDS011;22761;51.542;16.450;2024-02-26T06:48:53;34.20;;;20.30;;
36817;SDS011;22761;51.542;16.450;2024-02-26T06:51:22;38.10;;;21.00;;
36817;SDS011;22761;51.542;16.450;2024-02-26T06:53:51;37.80;;;22.20;;
36817;SDS011;22761;51.542;16.450;2024-02-26T06:56:19;38.80;;;22.60;;
36817;SDS011;22761;51.542;16.450;2024-02-26T06:58:48;43.60;;;23.20;;
36817;SDS011;22761;51.542;16.450;2024-02-26T07:01:16;39.10;;;23.10;;
36817;SDS011;22761;51.542;16.450;2024-02-26T07:03:45;46.30;;;26.10;;
36817;SDS011;22761;51.542;16.450;2024-02-26T07:06:14;51.40;;;27.70;;
36817;SDS011;22761;51.542;16.450;2024-02-26T07:08:43;54.10;;;28.10;;
36817;SDS011;22761;51.542;16.450;2024-02-26T07:11:11;58.30;;;31.60;;
36817;SDS011;22761;51.542;16.450;2024-02-26T07:13:39;60.70;;;31.40;;
36817;SDS011;22761;51.542;16.450;2024-02-26T07:16:09;59.60;;;32.60;;
36817;SDS011;22761;51.542;16.450;2024-02-26T07:18:41;58.70;;;31.00;;
36817;SDS011;22761;51.542;16.450;2024-02-26T07:21:11;58.60;;;32.00;;
36817;SDS011;22761;51.542;16.450;2024-02-26T07:23:40;59.40;;;33.60;;
36817;SDS011;22761;51.542;16.450;2024-02-26T07:26:09;57.10;;;33.50;;
36817;SDS011;22761;51.542;16.450;2024-02-26T07:28:39;46.60;;;28.10;;
36817;SDS011;22761;51.542;16.450;2024-02-26T07:31:08;50.00;;;30.20;;
36817;SDS011;22761;51.542;16.450;2024-02-26T07:33:36;47.90;;;28.30;;
36817;SDS011;22761;51.542;16.450;2024-02-26T07:36:04;42.10;;;27.50;;
36817;SDS011;22761;51.542;16.450;2024-02-26T07:38:33;44.00;;;27.50;;
36817;SDS011;22761;51.542;16.450;2024-02-26T07:41:11;47.60;;;26.50;;
36817;SDS011;22761;51.542;16.450;2024-02-26T07:43:39;42.50;;;26.90;;
36817;SDS011;22761;51.542;16.450;2024-02-26T07:46:11;36.20;;;23.10;;
36817;SDS011;22761;51.542;16.450;2024-02-26T07:48:39;30.70;;;19.70;;
36817;SDS011;22761;51.542;16.450;2024-02-26T07:51:11;36.90;;;21.60;;
36817;SDS011;22761;51.542;16.450;2024-02-26T07:53:40;30.00;;;19.20;;
36817;SDS011;22761;51.542;16.450;2024-02-26T07:56:09;31.20;;;18.50;;
36817;SDS011;22761;51.542;16.450;2024-02-26T07:58:37;28.70;;;18.40;;
36817;SDS011;22761;51.542;16.450;2024-02-26T08:01:05;26.30;;;18.10;;
36817;SDS011;22761;51.542;16.450;2024-02-26T08:03:34;30.70;;;19.40;;
36817;SDS011;22761;51.542;16.450;2024-02-26T08:06:02;29.20;;;19.00;;
36817;SDS011;22761;51.542;16.450;2024-02-26T08:08:31;29.80;;;19.30;;
36817;SDS011;22761;51.542;16.450;2024-02-26T08:10:59;30.80;;;19.10;;
36817;SDS011;22761;51.542;16.450;2024-02-26T08:13:28;35.10;;;19.10;;
36817;SDS011;22761;51.542;16.450;2024-02-26T08:15:56;32.90;;;20.30;;
36817;SDS011;22761;51.542;16.450;2024-02-26T08:18:24;33.30;;;19.80;;
36817;SDS011;22761;51.542;16.450;2024-02-26T08:20:52;33.60;;;18.90;;
36817;SDS011;22761;51.542;16.450;2024-02-26T08:23:20;30.30;;;19.00;;
36817;SDS011;22761;51.542;16.450;2024-02-26T08:25:48;28.60;;;18.80;;
36817;SDS011;22761;51.542;16.450;2024-02-26T08:28:17;28.90;;;17.80;;
36817;SDS011;22761;51.542;16.450;2024-02-26T08:30:46;26.00;;;17.40;;
36817;SDS011;22761;51.542;16.450;2024-02-26T08:33:14;30.20;;;17.90;;
36817;SDS011;22761;51.542;16.450;2024-02-26T08:35:43;30.10;;;18.10;;
36817;SDS011;22761;51.542;16.450;2024-02-26T08:38:12;29.10;;;18.80;;
36817;SDS011;22761;51.542;16.450;2024-02-26T08:40:40;25.00;;;16.60;;
36817;SDS011;22761;51.542;16.450;2024-02-26T08:43:08;31.00;;;17.10;;
36817;SDS011;22761;51.542;16.450;2024-02-26T08:45:37;29.80;;;18.50;;
36817;SDS011;22761;51.542;16.450;2024-02-26T08:48:06;31.00;;;19.20;;
36817;SDS011;22761;51.542;16.450;2024-02-26T08:50:35;36.20;;;21.60;;
36817;SDS011;22761;51.542;16.450;2024-02-26T08:53:04;34.90;;;21.20;;
36817;SDS011;22761;51.542;16.450;2024-02-26T08:58:02;38.00;;;22.60;;
36817;SDS011;22761;51.542;16.450;2024-02-26T09:00:31;46.60;;;26.60;;
36817;SDS011;22761;51.542;16.450;2024-02-26T09:02:59;46.00;;;24.50;;
36817;SDS011;22761;51.542;16.450;2024-02-26T09:05:33;31.40;;;20.50;;
36817;SDS011;22761;51.542;16.450;2024-02-26T09:08:02;39.30;;;22.60;;
36817;SDS011;22761;51.542;16.450;2024-02-26T09:10:30;31.50;;;18.80;;
36817;SDS011;22761;51.542;16.450;2024-02-26T09:13:00;28.30;;;17.70;;
36817;SDS011;22761;51.542;16.450;2024-02-26T09:15:28;60.40;;;19.50;;
36817;SDS011;22761;51.542;16.450;2024-02-26T09:17:57;24.60;;;15.70;;
36817;SDS011;22761;51.542;16.450;2024-02-26T09:20:25;28.10;;;15.40;;
36817;SDS011;22761;51.542;16.450;2024-02-26T09:22:54;24.70;;;14.10;;
36817;SDS011;22761;51.542;16.450;2024-02-26T09:25:22;23.00;;;15.30;;
36817;SDS011;22761;51.542;16.450;2024-02-26T09:27:50;32.20;;;15.20;;
36817;SDS011;22761;51.542;16.450;2024-02-26T09:30:19;25.90;;;14.60;;
36817;SDS011;22761;51.542;16.450;2024-02-26T09:32:47;17.50;;;13.40;;
36817;SDS011;22761;51.542;16.450;2024-02-26T09:35:18;20.40;;;14.20;;
36817;SDS011;22761;51.542;16.450;2024-02-26T09:37:47;19.40;;;13.00;;
36817;SDS011;22761;51.542;16.450;2024-02-26T09:40:16;18.40;;;12.80;;
36817;SDS011;22761;51.542;16.450;2024-02-26T09:42:45;20.30;;;13.80;;
36817;SDS011;22761;51.542;16.450;2024-02-26T09:45:20;19.10;;;13.40;;
36817;SDS011;22761;51.542;16.450;2024-02-26T09:47:50;17.30;;;12.80;;
36817;SDS011;22761;51.542;16.450;2024-02-26T09:50:19;19.80;;;12.70;;
36817;SDS011;22761;51.542;16.450;2024-02-26T09:52:51;18.60;;;12.70;;
36817;SDS011;22761;51.542;16.450;2024-02-26T09:55:21;15.40;;;11.30;;
36817;SDS011;22761;51.542;16.450;2024-02-26T09:57:50;16.70;;;11.00;;
36817;SDS011;22761;51.542;16.450;2024-02-26T10:00:20;15.10;;;11.20;;
36817;SDS011;22761;51.542;16.450;2024-02-26T10:02:50;15.90;;;11.30;;
36817;SDS011;22761;51.542;16.450;2024-02-26T10:05:19;16.30;;;11.40;;
36817;SDS011;22761;51.542;16.450;2024-02-26T10:07:47;12.90;;;10.60;;
36817;SDS011;22761;51.542;16.450;2024-02-26T10:10:17;14.50;;;9.80;;
36817;SDS011;22761;51.542;16.450;2024-02-26T10:12:45;13.80;;;9.80;;
36817;SDS011;22761;51.542;16.450;2024-02-26T10:15:14;12.90;;;9.30;;
36817;SDS011;22761;51.542;16.450;2024-02-26T10:17:42;14.40;;;10.00;;
36817;SDS011;22761;51.542;16.450;2024-02-26T10:20:15;13.30;;;9.60;;
36817;SDS011;22761;51.542;16.450;2024-02-26T10:22:46;11.20;;;8.40;;
36817;SDS011;22761;51.542;16.450;2024-02-26T10:25:14;11.70;;;8.80;;
36817;SDS011;22761;51.542;16.450;2024-02-26T10:27:43;12.70;;;8.90;;
36817;SDS011;22761;51.542;16.450;2024-02-26T10:30:17;12.40;;;8.90;;
36817;SDS011;22761;51.542;16.450;2024-02-26T10:32:47;13.20;;;9.00;;
36817;SDS011;22761;51.542;16.450;2024-02-26T10:35:17;11.10;;;9.00;;
36817;SDS011;22761;51.542;16.450;2024-02-26T10:37:46;13.20;;;9.10;;
36817;SDS011;22761;51.542;16.450;2024-02-26T10:40:14;13.00;;;8.90;;
36817;SDS011;22761;51.542;16.450;2024-02-26T10:42:43;14.20;;;9.30;;
36817;SDS011;22761;51.542;16.450;2024-02-26T10:45:13;11.30;;;8.40;;
36817;SDS011;22761;51.542;16.450;2024-02-26T10:47:42;14.80;;;8.70;;
36817;SDS011;22761;51.542;16.450;2024-02-26T10:50:10;13.30;;;8.40;;
36817;SDS011;22761;51.542;16.450;2024-02-26T10:52:41;13.20;;;8.60;;
36817;SDS011;22761;51.542;16.450;2024-02-26T10:55:13;10.90;;;8.00;;
36817;SDS011;22761;51.542;16.450;2024-02-26T10:57:46;12.50;;;9.00;;
36817;SDS011;22761;51.542;16.450;2024-02-26T11:00:15;15.90;;;9.10;;
36817;SDS011;22761;51.542;16.450;2024-02-26T11:02:45;12.60;;;9.10;;
36817;SDS011;22761;51.542;16.450;2024-02-26T11:05:16;10.20;;;8.30;;
36817;SDS011;22761;51.542;16.450;2024-02-26T11:07:45;85.70;;;11.70;;
36817;SDS011;22761;51.542;16.450;2024-02-26T11:10:14;66.70;;;13.10;;
36817;SDS011;22761;51.542;16.450;2024-02-26T11:12:43;10.50;;;8.80;;
36817;SDS011;22761;51.542;16.450;2024-02-26T11:15:12;11.20;;;8.80;;
36817;SDS011;22761;51.542;16.450;2024-02-26T11:17:42;10.90;;;8.10;;
36817;SDS011;22761;51.542;16.450;2024-02-26T11:20:11;12.90;;;8.40;;
36817;SDS011;22761;51.542;16.450;2024-02-26T11:22:41;12.10;;;7.90;;
36817;SDS011;22761;51.542;16.450;2024-02-26T11:25:09;10.80;;;8.20;;
36817;SDS011;22761;51.542;16.450;2024-02-26T11:27:54;11.70;;;7.90;;
36817;SDS011;22761;51.542;16.450;2024-02-26T11:30:25;10.60;;;7.90;;
36817;SDS011;22761;51.542;16.450;2024-02-26T11:32:54;13.30;;;8.70;;
36817;SDS011;22761;51.542;16.450;2024-02-26T11:35:23;14.00;;;8.80;;
36817;SDS011;22761;51.542;16.450;2024-02-26T11:37:52;10.70;;;8.40;;
36817;SDS011;22761;51.542;16.450;2024-02-26T11:40:24;12.30;;;8.50;;
36817;SDS011;22761;51.542;16.450;2024-02-26T11:42:53;11.60;;;8.30;;
36817;SDS011;22761;51.542;16.450;2024-02-26T11:48:12;12.00;;;7.60;;
36817;SDS011;22761;51.542;16.450;2024-02-26T11:50:42;10.40;;;6.70;;
36817;SDS011;22761;51.542;16.450;2024-02-26T11:53:27;9.70;;;6.40;;
36817;SDS011;22761;51.542;16.450;2024-02-26T11:58:47;10.90;;;5.60;;
36817;SDS011;22761;51.542;16.450;2024-02-26T12:04:20;9.30;;;5.20;;
36817;SDS011;22761;51.542;16.450;2024-02-26T12:06:50;7.30;;;4.80;;
36817;SDS011;22761;51.542;16.450;2024-02-26T12:12:09;6.50;;;3.70;;
36817;SDS011;22761;51.542;16.450;2024-02-26T12:14:39;6.00;;;3.60;;
36817;SDS011;22761;51.542;16.450;2024-02-26T12:17:19;6.50;;;3.70;;
36817;SDS011;22761;51.542;16.450;2024-02-26T12:19:49;5.10;;;3.30;;
36817;SDS011;22761;51.542;16.450;2024-02-26T12:22:18;6.60;;;3.70;;
36817;SDS011;22761;51.542;16.450;2024-02-26T12:24:47;4.90;;;3.40;;
36817;SDS011;22761;51.542;16.450;2024-02-26T12:27:15;6.70;;;3.00;;
36817;SDS011;22761;51.542;16.450;2024-02-26T12:29:43;6.80;;;3.50;;
36817;SDS011;22761;51.542;16.450;2024-02-26T12:32:12;7.10;;;3.20;;
36817;SDS011;22761;51.542;16.450;2024-02-26T12:34:40;6.40;;;3.30;;
36817;SDS011;22761;51.542;16.450;2024-02-26T12:37:09;6.40;;;3.30;;
36817;SDS011;22761;51.542;16.450;2024-02-26T12:39:38;5.90;;;3.40;;
36817;SDS011;22761;51.542;16.450;2024-02-26T12:42:06;5.00;;;3.30;;
36817;SDS011;22761;51.542;16.450;2024-02-26T12:44:35;5.10;;;2.90;;
36817;SDS011;22761;51.542;16.450;2024-02-26T12:47:04;6.40;;;3.20;;
36817;SDS011;22761;51.542;16.450;2024-02-26T12:49:32;3.50;;;2.60;;
36817;SDS011;22761;51.542;16.450;2024-02-26T12:52:01;4.50;;;3.10;;
36817;SDS011;22761;51.542;16.450;2024-02-26T12:54:30;4.90;;;2.80;;
36817;SDS011;22761;51.542;16.450;2024-02-26T12:59:29;5.20;;;2.80;;
36817;SDS011;22761;51.542;16.450;2024-02-26T13:01:57;15.40;;;10.60;;
36817;SDS011;22761;51.542;16.450;2024-02-26T13:04:27;6.00;;;4.20;;
36817;SDS011;22761;51.542;16.450;2024-02-26T13:07:02;9.50;;;6.70;;
36817;SDS011;22761;51.542;16.450;2024-02-26T13:09:33;13.90;;;9.10;;
36817;SDS011;22761;51.542;16.450;2024-02-26T13:12:06;45.50;;;30.40;;
36817;SDS011;22761;51.542;16.450;2024-02-26T13:14:35;23.10;;;14.70;;
36817;SDS011;22761;51.542;16.450;2024-02-26T13:17:03;35.70;;;21.70;;
36817;SDS011;22761;51.542;16.450;2024-02-26T13:19:32;39.00;;;25.00;;
36817;SDS011;22761;51.542;16.450;2024-02-26T13:22:04;10.10;;;7.70;;
36817;SDS011;22761;51.542;16.450;2024-02-26T13:24:35;7.10;;;4.10;;
36817;SDS011;22761;51.542;16.450;2024-02-26T13:27:04;5.20;;;3.30;;
36817;SDS011;22761;51.542;16.450;2024-02-26T13:32:03;7.30;;;3.50;;
36817;SDS011;22761;51.542;16.450;2024-02-26T13:34:31;6.80;;;3.40;;
36817;SDS011;22761;51.542;16.450;2024-02-26T13:37:01;4.30;;;3.10;;
36817;SDS011;22761;51.542;16.450;2024-02-26T13:39:30;5.10;;;3.10;;
36817;SDS011;22761;51.542;16.450;2024-02-26T13:41:58;5.60;;;3.30;;
36817;SDS011;22761;51.542;16.450;2024-02-26T13:44:27;5.00;;;3.10;;
36817;SDS011;22761;51.542;16.450;2024-02-26T13:46:55;4.40;;;3.20;;
36817;SDS011;22761;51.542;16.450;2024-02-26T13:49:23;6.60;;;3.60;;
36817;SDS011;22761;51.542;16.450;2024-02-26T13:51:51;13.00;;;8.40;;
36817;SDS011;22761;51.542;16.450;2024-02-26T13:54:20;9.80;;;6.90;;
36817;SDS011;22761;51.542;16.450;2024-02-26T13:56:48;7.60;;;4.30;;
36817;SDS011;22761;51.542;16.450;2024-02-26T13:59:16;6.50;;;3.40;;
36817;SDS011;22761;51.542;16.450;2024-02-26T14:01:45;4.50;;;3.10;;
36817;SDS011;22761;51.542;16.450;2024-02-26T14:04:13;4.80;;;3.00;;
36817;SDS011;22761;51.542;16.450;2024-02-26T14:06:42;5.60;;;3.20;;
36817;SDS011;22761;51.542;16.450;2024-02-26T14:09:10;6.00;;;3.50;;
36817;SDS011;22761;51.542;16.450;2024-02-26T14:11:39;5.50;;;3.50;;
36817;SDS011;22761;51.542;16.450;2024-02-26T14:14:08;7.10;;;3.40;;
36817;SDS011;22761;51.542;16.450;2024-02-26T14:16:36;9.10;;;3.50;;
36817;SDS011;22761;51.542;16.450;2024-02-26T14:19:04;13.00;;;3.70;;
36817;SDS011;22761;51.542;16.450;2024-02-26T14:21:32;13.00;;;3.80;;
36817;SDS011;22761;51.542;16.450;2024-02-26T14:24:01;7.10;;;3.60;;
36817;SDS011;22761;51.542;16.450;2024-02-26T14:26:30;6.20;;;3.60;;
36817;SDS011;22761;51.542;16.450;2024-02-26T14:28:58;6.20;;;3.40;;
36817;SDS011;22761;51.542;16.450;2024-02-26T14:31:26;6.10;;;3.40;;
36817;SDS011;22761;51.542;16.450;2024-02-26T14:33:55;6.50;;;3.20;;
36817;SDS011;22761;51.542;16.450;2024-02-26T14:36:23;6.40;;;4.00;;
36817;SDS011;22761;51.542;16.450;2024-02-26T14:38:52;7.80;;;3.90;;
36817;SDS011;22761;51.542;16.450;2024-02-26T14:41:20;15.30;;;4.00;;
36817;SDS011;22761;51.542;16.450;2024-02-26T14:43:48;10.10;;;3.90;;
36817;SDS011;22761;51.542;16.450;2024-02-26T14:46:17;25.90;;;5.10;;